createdAt,value
2019-04-04T00:02:08.959Z,47.74
2019-04-04T00:04:37.045Z,48.02
2019-04-04T00:07:05.067Z,47.83
2019-04-04T00:09:33.726Z,47.72
2019-04-04T00:12:01.810Z,47.72
2019-04-04T00:14:29.870Z,47.62
2019-04-04T00:16:57.939Z,47.69
2019-04-04T00:19:25.989Z,47.59
2019-04-04T00:21:54.002Z,47.53
2019-04-04T00:24:22.196Z,47.49
2019-04-04T00:26:50.262Z,47.70
2019-04-04T00:29:18.315Z,47.90
2019-04-04T00:31:49.359Z,47.56
2019-04-04T00:34:16.113Z,47.55
2019-04-04T00:36:44.138Z,47.55
2019-04-04T00:39:12.161Z,47.53
2019-04-04T00:41:40.248Z,47.55
2019-04-04T00:44:08.297Z,47.53
2019-04-04T00:46:36.350Z,47.33
2019-04-04T00:49:04.818Z,47.29
2019-04-04T00:51:33.437Z,47.59
2019-04-04T00:54:01.436Z,47.61
2019-04-04T00:56:29.484Z,47.37
2019-04-04T00:58:57.492Z,47.43
2019-04-04T01:01:26.819Z,47.49
2019-04-04T01:03:55.225Z,47.36
2019-04-04T01:06:23.228Z,47.33
2019-04-04T01:08:51.236Z,47.47
2019-04-04T01:11:20.334Z,47.35
2019-04-04T01:13:49.091Z,47.34
2019-04-04T01:16:17.092Z,47.39
2019-04-04T01:18:45.136Z,47.25
2019-04-04T01:21:13.155Z,47.64
2019-04-04T01:23:41.194Z,47.26
2019-04-04T01:26:09.228Z,47.46
2019-04-04T01:28:39.090Z,47.34
2019-04-04T01:31:07.007Z,47.39
2019-04-04T01:33:35.039Z,47.29
2019-04-04T01:36:03.039Z,47.50
2019-04-04T01:38:31.142Z,47.19
2019-04-04T01:40:59.156Z,47.20
2019-04-04T01:43:27.158Z,47.18
2019-04-04T01:45:55.203Z,47.72
2019-04-04T01:48:23.221Z,47.17
2019-04-04T01:50:53.467Z,47.28
2019-04-04T01:53:21.069Z,47.23
2019-04-04T01:55:49.089Z,47.50
2019-04-04T01:58:17.112Z,47.38
2019-04-04T02:00:46.007Z,47.12
2019-04-04T02:03:14.648Z,47.13
2019-04-04T02:05:42.661Z,47.14
2019-04-04T02:08:10.850Z,47.30
2019-04-04T02:10:38.899Z,47.36
2019-04-04T02:13:09.514Z,47.08
2019-04-04T02:15:36.680Z,47.15
2019-04-04T02:18:04.701Z,47.22
2019-04-04T02:20:32.732Z,47.10
2019-04-04T02:23:01.468Z,47.09
2019-04-04T02:25:29.938Z,47.13
2019-04-04T02:27:58.048Z,47.02
2019-04-04T02:30:26.239Z,46.99
2019-04-04T02:32:59.230Z,46.89
2019-04-04T02:35:24.048Z,47.04
2019-04-04T02:37:55.005Z,47.10
2019-04-04T02:40:21.806Z,46.99
2019-04-04T02:42:54.151Z,47.09
2019-04-04T02:45:19.791Z,47.20
2019-04-04T02:47:51.197Z,47.11
2019-04-04T02:50:17.639Z,47.21
2019-04-04T02:52:46.187Z,47.11
2019-04-04T02:55:14.854Z,47.52
2019-04-04T02:57:42.908Z,47.39
2019-04-04T03:00:10.930Z,47.30
2019-04-04T03:02:39.021Z,47.30
2019-04-04T03:05:07.029Z,47.34
2019-04-04T03:07:35.039Z,47.17
2019-04-04T03:10:03.159Z,47.28
2019-04-04T03:12:31.175Z,47.31
2019-04-04T03:14:59.181Z,47.39
2019-04-04T03:17:31.621Z,47.38
2019-04-04T03:19:56.968Z,47.39
2019-04-04T03:22:27.683Z,47.37
2019-04-04T03:24:54.768Z,47.27
2019-04-04T03:27:25.631Z,47.36
2019-04-04T03:29:52.568Z,47.39
2019-04-04T03:32:20.622Z,47.34
2019-04-04T03:34:50.645Z,47.31
2019-04-04T03:37:18.560Z,47.27
2019-04-04T03:39:46.617Z,47.51
2019-04-04T03:42:14.873Z,47.39
2019-04-04T03:44:42.940Z,47.22
2019-04-04T03:47:11.417Z,47.21
2019-04-04T03:49:39.495Z,47.28
2019-04-04T03:52:10.456Z,47.21
2019-04-04T03:54:37.272Z,47.36
2019-04-04T03:57:05.304Z,47.30
2019-04-04T03:59:33.343Z,47.45
2019-04-04T04:02:01.349Z,47.44
2019-04-04T04:04:29.353Z,47.21
2019-04-04T04:06:57.653Z,47.32
2019-04-04T04:09:26.545Z,47.31
2019-04-04T04:11:55.286Z,47.39
2019-04-04T04:14:23.309Z,47.28
2019-04-04T04:16:51.368Z,47.44
2019-04-04T04:19:19.391Z,47.64
2019-04-04T04:21:47.449Z,47.33
2019-04-04T04:24:15.440Z,47.33
2019-04-04T04:26:43.475Z,47.31
2019-04-04T04:29:11.529Z,47.30
2019-04-04T04:31:39.595Z,47.42
2019-04-04T04:34:07.602Z,47.40
2019-04-04T04:36:35.664Z,47.34
2019-04-04T04:39:04.834Z,47.29
2019-04-04T04:41:32.828Z,47.46
2019-04-04T04:44:02.800Z,47.46
2019-04-04T04:46:30.790Z,47.37
2019-04-04T04:49:02.767Z,47.30
2019-04-04T04:51:28.613Z,47.28
2019-04-04T04:53:57.001Z,47.37
2019-04-04T04:56:25.018Z,47.35
2019-04-04T04:58:55.412Z,47.29
2019-04-04T05:01:22.776Z,47.29
2019-04-04T05:03:50.959Z,47.52
2019-04-04T05:06:19.156Z,47.25
2019-04-04T05:08:47.208Z,47.49
2019-04-04T05:11:16.804Z,47.59
2019-04-04T05:13:44.976Z,47.46
2019-04-04T05:16:12.990Z,47.64
2019-04-04T05:18:41.008Z,47.51
2019-04-04T05:21:09.089Z,47.36
2019-04-04T05:23:37.101Z,47.51
2019-04-04T05:26:05.133Z,47.49
2019-04-04T05:28:33.212Z,47.48
2019-04-04T05:31:01.218Z,47.55
2019-04-04T05:33:31.588Z,47.52
2019-04-04T05:35:59.055Z,47.53
2019-04-04T05:38:27.027Z,47.63
2019-04-04T05:40:55.514Z,48.40
2019-04-04T05:43:24.204Z,49.32
2019-04-04T05:45:52.274Z,49.03
2019-04-04T05:48:20.289Z,49.02
2019-04-04T05:50:48.485Z,49.23
2019-04-04T05:53:16.474Z,49.70
2019-04-04T05:55:44.516Z,49.29
2019-04-04T05:58:12.625Z,48.88
2019-04-04T06:00:42.455Z,48.96
2019-04-04T06:03:10.629Z,48.74
2019-04-04T06:05:38.662Z,47.66
2019-04-04T06:08:08.151Z,47.23
2019-04-04T06:10:36.416Z,47.35
2019-04-04T06:13:04.669Z,47.65
2019-04-04T06:15:32.930Z,47.34
2019-04-04T06:18:01.013Z,47.36
2019-04-04T06:20:29.026Z,47.68
2019-04-04T06:22:57.029Z,47.85
2019-04-04T06:25:25.085Z,48.22
2019-04-04T06:27:53.145Z,48.96
2019-04-04T06:30:21.141Z,48.60
2019-04-04T06:32:49.144Z,49.25
2019-04-04T06:35:17.192Z,48.72
2019-04-04T06:37:46.227Z,48.86
2019-04-04T06:40:14.365Z,48.84
2019-04-04T06:42:45.158Z,48.01
2019-04-04T06:45:15.127Z,48.29
2019-04-04T06:47:42.285Z,48.27
2019-04-04T06:50:10.302Z,48.16
2019-04-04T06:52:38.614Z,48.11
2019-04-04T06:55:06.683Z,47.56
2019-04-04T06:57:36.556Z,47.96
2019-04-04T07:00:04.446Z,47.94
2019-04-04T07:02:32.483Z,47.84
2019-04-04T07:05:00.503Z,47.72
2019-04-04T07:07:28.511Z,47.58
2019-04-04T07:09:56.606Z,47.59
2019-04-04T07:12:28.446Z,47.30
2019-04-04T07:14:54.364Z,48.38
2019-04-04T07:17:22.416Z,48.49
2019-04-04T07:19:50.417Z,48.67
2019-04-04T07:22:20.512Z,48.62
2019-04-04T07:24:48.193Z,48.40
2019-04-04T07:27:16.875Z,48.44
2019-04-04T07:29:44.977Z,48.01
2019-04-04T07:32:13.004Z,48.28
2019-04-04T07:34:41.045Z,48.30
2019-04-04T07:37:09.124Z,48.08
2019-04-04T07:39:37.703Z,48.02
2019-04-04T07:42:05.738Z,47.95
2019-04-04T07:44:33.821Z,48.01
2019-04-04T07:47:02.355Z,48.48
2019-04-04T07:49:30.364Z,47.83
2019-04-04T07:52:00.171Z,47.88
2019-04-04T07:54:28.180Z,48.24
2019-04-04T07:56:56.228Z,47.96
2019-04-04T07:59:24.267Z,47.73
2019-04-04T08:01:52.342Z,47.58
2019-04-04T08:04:20.420Z,47.73
2019-04-04T08:06:48.442Z,48.00
2019-04-04T08:09:16.519Z,47.69
2019-04-04T08:11:44.606Z,47.70
2019-04-04T08:14:12.754Z,48.13
2019-04-04T08:16:40.816Z,47.70
2019-04-04T08:19:08.918Z,47.93
2019-04-04T08:21:36.976Z,47.55
2019-04-04T08:24:05.019Z,47.98
2019-04-04T08:26:33.466Z,47.48
2019-04-04T08:29:01.521Z,47.70
2019-04-04T08:31:29.867Z,48.18
2019-04-04T08:33:58.022Z,48.26
2019-04-04T08:36:27.259Z,47.58
2019-04-04T08:38:55.324Z,48.06
2019-04-04T08:41:23.719Z,47.53
2019-04-04T08:43:51.954Z,47.53
2019-04-04T08:46:20.366Z,47.74
2019-04-04T08:48:48.542Z,47.32
2019-04-04T08:51:16.636Z,47.46
2019-04-04T08:53:44.720Z,47.50
2019-04-04T08:56:12.859Z,47.28
2019-04-04T08:58:41.149Z,47.56
2019-04-04T09:01:09.504Z,47.43
2019-04-04T09:03:37.577Z,47.12
2019-04-04T09:06:05.894Z,47.03
2019-04-04T09:08:33.943Z,47.00
2019-04-04T09:11:02.121Z,46.94
2019-04-04T09:13:30.351Z,46.97
2019-04-04T09:16:01.414Z,47.74
2019-04-04T09:18:29.671Z,46.99
2019-04-04T09:20:57.786Z,46.92
2019-04-04T09:23:25.847Z,47.01
2019-04-04T09:26:04.949Z,46.94
2019-04-04T09:28:23.839Z,46.93
2019-04-04T09:30:52.030Z,47.10
2019-04-04T09:33:21.076Z,46.73
2019-04-04T09:35:49.240Z,46.95
2019-04-04T09:38:17.352Z,46.87
2019-04-04T09:40:45.426Z,46.46
2019-04-04T09:43:13.757Z,46.46
2019-04-04T09:45:41.839Z,46.59
2019-04-04T09:48:09.957Z,46.41
2019-04-04T09:50:44.766Z,46.74
2019-04-04T09:53:12.791Z,46.50
2019-04-04T09:55:40.860Z,46.23
2019-04-04T09:58:10.996Z,46.20
2019-04-04T10:00:39.056Z,46.11
2019-04-04T10:03:07.142Z,46.10
2019-04-04T10:05:35.258Z,46.16
2019-04-04T10:08:03.314Z,47.03
2019-04-04T10:10:31.353Z,47.50
2019-04-04T10:12:59.523Z,50.75
2019-04-04T10:15:27.956Z,51.00
2019-04-04T10:17:56.051Z,52.39
2019-04-04T10:20:24.272Z,51.35
2019-04-04T10:22:52.373Z,52.91
2019-04-04T10:25:20.436Z,53.90
2019-04-04T10:27:48.845Z,59.71
2019-04-04T10:30:17.290Z,61.68
2019-04-04T10:32:45.393Z,61.42
2019-04-04T10:35:13.669Z,63.08
2019-04-04T10:37:41.905Z,63.62
2019-04-04T10:40:10.101Z,64.09
2019-04-04T10:42:38.458Z,64.57
2019-04-04T10:45:06.570Z,62.95
2019-04-04T10:47:34.669Z,64.51
2019-04-04T10:50:02.918Z,65.99
2019-04-04T10:52:31.018Z,65.56
2019-04-04T10:55:01.513Z,66.03
2019-04-04T10:57:28.973Z,65.97
2019-04-04T10:59:57.113Z,64.99
2019-04-04T11:02:25.200Z,65.65
2019-04-04T11:04:53.295Z,66.29
2019-04-04T11:07:21.387Z,66.09
2019-04-04T11:09:49.449Z,66.25
2019-04-04T11:12:17.606Z,66.45
2019-04-04T11:14:50.812Z,66.67
2019-04-04T11:17:18.872Z,65.63
2019-04-04T11:19:46.919Z,65.77
2019-04-04T11:22:15.023Z,65.71
2019-04-04T11:24:43.055Z,66.56
2019-04-04T11:27:11.090Z,66.71
2019-04-04T11:29:39.159Z,66.65
2019-04-04T11:32:07.241Z,66.84
2019-04-04T11:34:35.385Z,66.17
2019-04-04T11:37:03.829Z,66.08
2019-04-04T11:39:31.964Z,66.84
2019-04-04T11:42:00.290Z,67.31
2019-04-04T11:44:30.728Z,66.71
2019-04-04T11:46:58.307Z,67.79
2019-04-04T11:49:26.416Z,68.29
2019-04-04T11:51:54.470Z,68.19
2019-04-04T11:54:22.601Z,67.66
2019-04-04T11:56:50.657Z,67.36
2019-04-04T11:59:18.676Z,66.42
2019-04-04T12:01:47.693Z,66.77
2019-04-04T12:04:15.852Z,67.76
2019-04-04T12:06:44.484Z,67.95
2019-04-04T12:09:12.731Z,68.64
2019-04-04T12:11:40.901Z,67.35
2019-04-04T12:14:09.128Z,67.93
2019-04-04T12:16:37.236Z,68.78
2019-04-04T12:19:05.563Z,69.04
2019-04-04T12:21:33.619Z,68.97
2019-04-04T12:24:01.707Z,68.13
2019-04-04T12:26:29.821Z,67.66
2019-04-04T12:28:57.910Z,68.51
2019-04-04T12:31:26.153Z,68.41
2019-04-04T12:33:55.371Z,69.18
2019-04-04T12:36:24.907Z,69.83
2019-04-04T12:38:53.189Z,70.11
2019-04-04T12:41:21.234Z,70.57
2019-04-04T12:43:49.305Z,70.25
2019-04-04T12:46:17.578Z,70.51
2019-04-04T12:48:46.799Z,70.24
2019-04-04T12:51:14.895Z,70.38
2019-04-04T12:53:42.994Z,69.58
2019-04-04T12:56:11.063Z,70.15
2019-04-04T12:58:39.118Z,69.87
2019-04-04T13:01:07.234Z,69.42
2019-04-04T13:03:35.254Z,68.52
2019-04-04T13:06:03.296Z,68.22
2019-04-04T13:08:31.382Z,68.28
2019-04-04T13:10:59.443Z,69.17
2019-04-04T13:13:27.520Z,68.13
2019-04-04T13:15:55.680Z,68.94
2019-04-04T13:18:23.804Z,69.37
2019-04-04T13:20:51.959Z,69.33
2019-04-04T13:23:20.177Z,69.69
2019-04-04T13:25:48.257Z,69.25
2019-04-04T13:28:19.310Z,69.28
2019-04-04T13:30:47.420Z,69.16
2019-04-04T13:33:15.456Z,67.89
2019-04-04T13:35:43.543Z,68.62
2019-04-04T13:38:11.721Z,67.61
2019-04-04T13:40:45.392Z,67.64
2019-04-04T13:43:09.968Z,67.84
2019-04-04T13:45:38.311Z,67.11
2019-04-04T13:48:06.361Z,68.03
2019-04-04T13:50:34.662Z,67.67
2019-04-04T13:53:02.834Z,66.48
2019-04-04T13:55:30.973Z,68.28
2019-04-04T13:57:59.332Z,67.00
2019-04-04T14:00:27.464Z,66.65
2019-04-04T14:02:55.572Z,68.19
2019-04-04T14:05:23.680Z,67.05
2019-04-04T14:07:51.815Z,67.43
2019-04-04T14:10:19.942Z,65.26
2019-04-04T14:12:48.137Z,66.57
2019-04-04T14:15:16.393Z,67.66
2019-04-04T14:17:44.443Z,66.01
2019-04-04T14:20:13.627Z,67.27
2019-04-04T14:22:41.694Z,66.17
2019-04-04T14:25:09.733Z,67.48
2019-04-04T14:27:38.200Z,67.41
2019-04-04T14:30:06.384Z,67.08
2019-04-04T14:32:34.562Z,66.24
2019-04-04T14:35:03.034Z,67.24
2019-04-04T14:37:31.311Z,67.47
2019-04-04T14:39:59.783Z,67.78
2019-04-04T14:42:28.030Z,66.37
2019-04-04T14:44:56.207Z,64.73
2019-04-04T14:47:24.348Z,62.48
2019-04-04T14:49:52.504Z,61.71
2019-04-04T14:52:20.765Z,60.91
2019-04-04T14:54:48.901Z,59.35
2019-04-04T14:57:16.962Z,58.56
2019-04-04T14:59:45.128Z,59.19
2019-04-04T15:02:13.191Z,59.00
2019-04-04T15:04:41.277Z,57.85
2019-04-04T15:07:09.403Z,57.83
2019-04-04T15:09:37.439Z,57.50
2019-04-04T15:12:05.560Z,56.41
2019-04-04T15:14:33.610Z,57.56
2019-04-04T15:17:01.628Z,57.69
2019-04-04T15:19:29.734Z,58.82
2019-04-04T15:21:57.789Z,58.88
2019-04-04T15:24:26.025Z,58.36
2019-04-04T15:26:54.094Z,58.76
2019-04-04T15:29:22.281Z,56.98
2019-04-04T15:31:50.713Z,54.02
2019-04-04T15:34:18.834Z,53.91
2019-04-04T15:36:47.027Z,52.81
2019-04-04T15:39:16.036Z,51.86
2019-04-04T15:41:44.202Z,51.50
2019-04-04T15:44:12.220Z,49.93
2019-04-04T15:46:40.293Z,49.80
2019-04-04T15:49:08.344Z,49.76
2019-04-04T15:51:36.474Z,49.15
2019-04-04T15:54:04.528Z,49.71
2019-04-04T15:56:32.560Z,49.29
2019-04-04T15:59:00.653Z,48.87
2019-04-04T16:01:28.704Z,47.78
2019-04-04T16:03:56.805Z,48.69
2019-04-04T16:06:24.982Z,48.13
2019-04-04T16:08:53.027Z,49.75
2019-04-04T16:11:21.120Z,49.55
2019-04-04T16:13:49.278Z,49.79
2019-04-04T16:16:17.307Z,49.34
2019-04-04T16:18:45.711Z,49.11
2019-04-04T16:21:13.836Z,49.81
2019-04-04T16:23:41.878Z,49.01
2019-04-04T16:26:10.079Z,49.33
2019-04-04T16:28:38.302Z,49.40
2019-04-04T16:31:06.501Z,49.26
2019-04-04T16:33:34.896Z,48.96
2019-04-04T16:36:05.337Z,47.67
2019-04-04T16:38:32.815Z,46.52
2019-04-04T16:41:00.973Z,46.87
2019-04-04T16:43:29.009Z,46.51
2019-04-04T16:45:57.043Z,46.66
2019-04-04T16:48:25.128Z,46.23
2019-04-04T16:50:53.268Z,47.06
2019-04-04T16:53:21.287Z,47.12
2019-04-04T16:55:49.325Z,46.90
2019-04-04T16:58:17.562Z,48.71
2019-04-04T17:00:45.838Z,48.29
2019-04-04T17:03:14.050Z,48.79
2019-04-04T17:05:42.158Z,49.88
2019-04-04T17:08:10.405Z,49.61
2019-04-04T17:10:38.517Z,50.96
2019-04-04T17:13:06.569Z,50.24
2019-04-04T17:15:34.596Z,50.87
2019-04-04T17:18:02.650Z,51.46
2019-04-04T17:20:30.713Z,50.21
2019-04-04T17:22:58.843Z,49.27
2019-04-04T17:25:26.879Z,48.69
2019-04-04T17:28:13.643Z,48.91
2019-04-04T17:30:41.780Z,48.98
2019-04-04T17:33:10.555Z,48.84
2019-04-04T17:35:38.757Z,48.94
2019-04-04T17:38:06.813Z,49.19
2019-04-04T17:40:35.105Z,49.05
2019-04-04T17:43:03.561Z,49.72
2019-04-04T17:45:32.328Z,48.33
2019-04-04T17:48:00.450Z,49.08
2019-04-04T17:50:28.858Z,47.39
2019-04-04T17:52:57.104Z,47.03
2019-04-04T17:55:25.354Z,46.96
2019-04-04T17:57:53.451Z,47.63
2019-04-04T18:00:22.865Z,47.31
2019-04-04T18:02:50.948Z,47.88
2019-04-04T18:05:19.007Z,47.37
2019-04-04T18:07:47.067Z,47.51
2019-04-04T18:10:15.105Z,48.21
2019-04-04T18:12:43.149Z,48.14
2019-04-04T18:15:11.407Z,47.80
2019-04-04T18:17:39.481Z,47.57
2019-04-04T18:20:07.533Z,47.27
2019-04-04T18:22:35.712Z,46.99
2019-04-04T18:25:03.762Z,46.89
2019-04-04T18:27:31.837Z,46.61
2019-04-04T18:29:59.915Z,47.04
2019-04-04T18:32:27.931Z,47.48
2019-04-04T18:34:55.980Z,47.85
2019-04-04T18:37:24.269Z,47.80
2019-04-04T18:39:52.428Z,47.71
2019-04-04T18:42:23.227Z,48.17
2019-04-04T18:44:51.288Z,47.73
2019-04-04T18:47:19.300Z,47.78
2019-04-04T18:49:47.376Z,48.01
2019-04-04T18:52:15.429Z,47.76
2019-04-04T18:54:43.487Z,47.78
2019-04-04T18:57:13.269Z,47.98
2019-04-04T18:59:41.467Z,47.94
2019-04-04T19:02:09.532Z,48.10
2019-04-04T19:04:37.617Z,47.98
2019-04-04T19:07:05.796Z,48.08
2019-04-04T19:09:34.091Z,48.35
2019-04-04T19:12:02.227Z,48.42
2019-04-04T19:14:30.389Z,48.75
2019-04-04T19:16:58.432Z,48.45
2019-04-04T19:19:26.453Z,48.38
2019-04-04T19:21:54.501Z,48.18
2019-04-04T19:24:22.529Z,48.01
2019-04-04T19:26:50.577Z,47.44
2019-04-04T19:29:18.665Z,47.78
2019-04-04T19:31:46.738Z,48.43
2019-04-04T19:34:14.907Z,47.88
2019-04-04T19:36:42.974Z,48.31
2019-04-04T19:39:18.668Z,48.51
2019-04-04T19:41:46.483Z,48.96
2019-04-04T19:44:14.728Z,48.52
2019-04-04T19:46:42.808Z,48.79
2019-04-04T19:49:11.213Z,48.98
2019-04-04T19:51:39.299Z,49.56
2019-04-04T19:54:07.336Z,49.47
2019-04-04T19:56:35.395Z,48.92
2019-04-04T19:59:03.522Z,49.65
2019-04-04T20:01:31.539Z,49.08
2019-04-04T20:03:59.616Z,49.19
2019-04-04T20:06:27.642Z,49.71
2019-04-04T20:08:55.851Z,49.30
2019-04-04T20:11:23.923Z,49.63
2019-04-04T20:13:52.120Z,49.80
2019-04-04T20:16:20.165Z,49.67
2019-04-04T20:18:48.239Z,49.12
2019-04-04T20:21:16.280Z,49.63
2019-04-04T20:23:44.418Z,49.55
2019-04-04T20:26:13.638Z,49.49
2019-04-04T20:28:44.548Z,49.34
2019-04-04T20:31:12.958Z,50.03
2019-04-04T20:33:44.044Z,49.89
2019-04-04T20:36:12.090Z,49.64
2019-04-04T20:38:40.178Z,49.93
2019-04-04T20:41:08.281Z,49.23
2019-04-04T20:43:43.252Z,49.71
2019-04-04T20:46:06.440Z,49.72
2019-04-04T20:48:34.558Z,49.56
2019-04-04T20:51:02.588Z,49.74
2019-04-04T20:53:30.697Z,49.20
2019-04-04T20:55:58.776Z,49.60
2019-04-04T20:58:26.834Z,49.76
2019-04-04T21:00:54.890Z,49.37
2019-04-04T21:03:22.948Z,49.35
2019-04-04T21:05:50.974Z,49.38
2019-04-04T21:08:19.012Z,49.75
2019-04-04T21:10:47.088Z,49.74
2019-04-04T21:13:15.106Z,49.24
2019-04-04T21:15:43.205Z,49.66
2019-04-04T21:18:13.877Z,48.96
2019-04-04T21:20:41.041Z,48.72
2019-04-04T21:23:09.078Z,48.42
2019-04-04T21:25:37.242Z,48.49
2019-04-04T21:28:05.251Z,48.68
2019-04-04T21:30:33.939Z,48.87
2019-04-04T21:33:02.744Z,48.16
2019-04-04T21:35:30.827Z,48.00
2019-04-04T21:37:59.082Z,48.05
2019-04-04T21:40:27.139Z,48.43
2019-04-04T21:42:55.911Z,48.27
2019-04-04T21:45:24.400Z,48.32
2019-04-04T21:47:52.465Z,48.44
2019-04-04T21:50:20.507Z,48.91
2019-04-04T21:52:48.681Z,49.37
2019-04-04T21:55:16.903Z,49.96
2019-04-04T21:57:44.962Z,49.85
2019-04-04T22:00:12.982Z,50.19
2019-04-04T22:02:41.118Z,49.90
2019-04-04T22:05:09.164Z,49.95
2019-04-04T22:07:37.390Z,49.89
2019-04-04T22:10:24.204Z,49.92
2019-04-04T22:12:52.264Z,50.05
2019-04-04T22:15:20.380Z,49.93
2019-04-04T22:17:48.575Z,49.88
2019-04-04T22:20:16.983Z,49.79
2019-04-04T22:22:45.019Z,49.82
2019-04-04T22:25:13.101Z,49.67
2019-04-04T22:27:41.124Z,49.54
2019-04-04T22:30:09.180Z,49.77
2019-04-04T22:32:37.548Z,49.74
2019-04-04T22:35:06.466Z,49.46
2019-04-04T22:37:34.606Z,49.59
2019-04-04T22:40:02.712Z,49.57
2019-04-04T22:42:30.736Z,49.56
2019-04-04T22:44:58.937Z,49.27
2019-04-04T22:47:27.012Z,49.37
2019-04-04T22:49:55.084Z,49.60
2019-04-04T22:52:23.127Z,49.42
2019-04-04T22:54:51.215Z,49.15
2019-04-04T22:57:19.270Z,49.28
2019-04-04T22:59:47.312Z,49.35
2019-04-04T23:02:15.431Z,49.33
2019-04-04T23:04:43.441Z,49.56
2019-04-04T23:07:11.457Z,49.47
2019-04-04T23:09:39.633Z,49.11
2019-04-04T23:12:07.785Z,49.10
2019-04-04T23:14:47.372Z,49.11
2019-04-04T23:17:05.595Z,49.11
2019-04-04T23:19:33.617Z,49.11
2019-04-04T23:22:01.666Z,49.08
2019-04-04T23:24:29.725Z,48.90
2019-04-04T23:26:58.638Z,48.90
2019-04-04T23:29:26.677Z,48.82
2019-04-04T23:31:54.761Z,48.69
2019-04-04T23:34:22.871Z,48.74
2019-04-04T23:36:50.908Z,48.93
2019-04-04T23:39:18.949Z,48.71
2019-04-04T23:41:47.017Z,48.71
2019-04-04T23:44:15.131Z,48.62
2019-04-04T23:46:43.164Z,48.84
2019-04-04T23:49:11.226Z,48.58
2019-04-04T23:51:39.243Z,48.71
2019-04-04T23:54:07.274Z,48.63
2019-04-04T23:56:35.346Z,48.59
2019-04-04T23:59:03.377Z,48.66
